createdAt,value
2022-07-31T00:01:04.329Z,97701.69
2022-07-31T00:03:32.803Z,97693.63
2022-07-31T00:06:01.390Z,97690.91
2022-07-31T00:08:29.880Z,97693.63
2022-07-31T00:10:58.357Z,97704.41
2022-07-31T00:13:57.216Z,97697.31
2022-07-31T00:16:17.411Z,97691.94
2022-07-31T00:18:45.845Z,97694.63
2022-07-31T00:21:15.136Z,97691.94
2022-07-31T00:23:43.617Z,97684.88
2022-07-31T00:26:12.088Z,97689.22
2022-07-31T00:28:40.668Z,97686.53
2022-07-31T00:31:09.164Z,97686.53
2022-07-31T00:33:39.101Z,97682.81
2022-07-31T00:36:08.171Z,97683.66
2022-07-31T00:38:36.799Z,97689.22
2022-07-31T00:41:05.225Z,97686.53
2022-07-31T00:43:33.656Z,97682.81
2022-07-31T00:46:02.138Z,97682.19
2022-07-31T00:48:31.212Z,97682.19
2022-07-31T00:51:01.544Z,97686.53
2022-07-31T00:53:29.977Z,97683.84
2022-07-31T00:55:58.545Z,97676.56
2022-07-31T00:58:27.014Z,97677.44
2022-07-31T01:00:55.514Z,97678.25
2022-07-31T01:03:23.991Z,97674.72
2022-07-31T01:05:52.413Z,97675.56
2022-07-31T01:08:22.285Z,97683.66
2022-07-31T01:10:55.624Z,97681.97
2022-07-31T01:13:32.225Z,97682.81
2022-07-31T01:16:01.363Z,97679.28
2022-07-31T01:18:31.785Z,97690.50
2022-07-31T01:21:03.339Z,97684.06
2022-07-31T01:23:55.240Z,97674.31
2022-07-31T01:26:35.986Z,97684.88
2022-07-31T01:29:20.322Z,97680.31
2022-07-31T01:31:53.639Z,97678.66
2022-07-31T01:34:27.112Z,97683.22
2022-07-31T01:37:05.103Z,97682.19
2022-07-31T01:39:34.982Z,97685.09
2022-07-31T01:42:06.379Z,97690.28
2022-07-31T01:44:42.601Z,97692.16
2022-07-31T01:47:11.740Z,97691.09
2022-07-31T01:49:40.236Z,97690.50
2022-07-31T01:52:09.122Z,97693.19
2022-07-31T01:54:37.569Z,97685.28
2022-07-31T01:57:06.235Z,97687.16
2022-07-31T01:59:35.290Z,97693.78
2022-07-31T02:02:06.386Z,97695.66
2022-07-31T02:04:38.321Z,97690.28
2022-07-31T02:07:08.361Z,97686.75
2022-07-31T02:09:37.057Z,97686.75
2022-07-31T02:12:09.678Z,97688.63
2022-07-31T02:14:38.491Z,97683.84
2022-07-31T02:17:08.548Z,97680.13
2022-07-31T02:19:37.446Z,97672.84
2022-07-31T02:22:06.868Z,97676.38
2022-07-31T02:24:35.501Z,97683.41
2022-07-31T02:27:03.951Z,97680.72
2022-07-31T02:29:34.511Z,97677.84
2022-07-31T02:32:03.720Z,97675.34
2022-07-31T02:34:33.970Z,97678.03
2022-07-31T02:37:02.773Z,97684.06
2022-07-31T02:39:31.955Z,97672.44
2022-07-31T02:42:02.083Z,97675.13
2022-07-31T02:44:32.298Z,97671.00
2022-07-31T02:47:02.677Z,97673.69
2022-07-31T02:49:31.483Z,97678.03
2022-07-31T02:52:01.834Z,97675.75
2022-07-31T02:54:30.673Z,97681.97
2022-07-31T02:56:59.588Z,97676.38
2022-07-31T02:59:28.097Z,97684.47
2022-07-31T03:01:56.541Z,97682.81
2022-07-31T03:04:25.525Z,97684.47
2022-07-31T03:06:54.030Z,97689.66
2022-07-31T03:09:23.969Z,97687.78
2022-07-31T03:11:52.632Z,97688.22
2022-07-31T03:14:21.143Z,97687.78
2022-07-31T03:16:49.710Z,97684.06
2022-07-31T03:19:18.427Z,97692.16
2022-07-31T03:21:47.096Z,97688.59
2022-07-31T03:24:15.562Z,97688.59
2022-07-31T03:26:45.534Z,97686.97
2022-07-31T03:29:39.109Z,97689.47
2022-07-31T03:32:02.855Z,97696.91
2022-07-31T03:34:31.750Z,97693.59
2022-07-31T03:37:00.515Z,97689.25
2022-07-31T03:39:29.006Z,97693.41
2022-07-31T03:41:59.009Z,97694.41
2022-07-31T03:44:27.539Z,97692.53
2022-07-31T03:46:56.163Z,97691.72
2022-07-31T03:49:24.860Z,97698.16
2022-07-31T03:51:53.865Z,97702.72
2022-07-31T03:54:22.313Z,97696.50
2022-07-31T03:56:51.819Z,97694.41
2022-07-31T03:59:22.171Z,97697.94
2022-07-31T04:02:07.525Z,97699.81
2022-07-31T04:04:39.171Z,97699.81
2022-07-31T04:07:07.749Z,97705.19
2022-07-31T04:09:36.466Z,97700.63
2022-07-31T04:12:06.257Z,97694.63
2022-07-31T04:14:36.297Z,97702.72
2022-07-31T04:17:05.176Z,97697.94
2022-07-31T04:19:34.166Z,97698.78
2022-07-31T04:22:04.652Z,97702.50
2022-07-31T04:24:33.461Z,97703.13
2022-07-31T04:27:02.048Z,97689.84
2022-07-31T04:29:30.584Z,97693.41
2022-07-31T04:32:00.642Z,97696.09
2022-07-31T04:34:29.246Z,97693.81
2022-07-31T04:36:58.885Z,97699.41
2022-07-31T04:39:27.350Z,97703.97
2022-07-31T04:41:56.134Z,97700.22
2022-07-31T04:44:24.632Z,97708.94
2022-07-31T04:46:53.117Z,97710.59
2022-07-31T04:49:23.117Z,97715.16
2022-07-31T04:51:51.858Z,97725.53
2022-07-31T04:54:20.287Z,97724.28
2022-07-31T04:56:48.879Z,97722.84
2022-07-31T04:59:20.288Z,97725.53
2022-07-31T05:01:49.179Z,97736.50
2022-07-31T05:04:17.900Z,97736.31
2022-07-31T05:06:48.893Z,97751.66
2022-07-31T05:09:19.598Z,97750.22
2022-07-31T05:11:52.689Z,97746.88
2022-07-31T05:14:29.260Z,97749.59
2022-07-31T05:16:57.866Z,97747.53
2022-07-31T05:19:29.822Z,97753.75
2022-07-31T05:22:02.547Z,97756.44
2022-07-31T05:24:33.502Z,97763.22
2022-07-31T05:27:03.162Z,97764.03
2022-07-31T05:29:31.999Z,97764.28
2022-07-31T05:32:01.237Z,97773.41
2022-07-31T05:34:30.779Z,97766.13
2022-07-31T05:37:02.299Z,97770.91
2022-07-31T05:39:31.048Z,97776.28
2022-07-31T05:41:59.697Z,97774.84
2022-07-31T05:44:28.215Z,97778.34
2022-07-31T05:49:26.871Z,97785.63
2022-07-31T05:51:55.551Z,97790.03
2022-07-31T05:54:25.510Z,97786.50
2022-07-31T05:56:54.104Z,97786.09
2022-07-31T05:59:22.795Z,97796.06
2022-07-31T06:01:51.483Z,97802.03
2022-07-31T06:04:19.980Z,97798.97
2022-07-31T06:06:48.454Z,97804.34
2022-07-31T06:09:16.929Z,97801.84
2022-07-31T06:11:47.291Z,97811.81
2022-07-31T06:14:15.735Z,97811.00
2022-07-31T06:16:45.647Z,97808.06
2022-07-31T06:19:14.304Z,97805.38
2022-07-31T06:21:42.869Z,97812.09
2022-07-31T06:24:11.446Z,97818.69
2022-07-31T06:26:41.713Z,97811.94
2022-07-31T06:29:12.881Z,97820.91
2022-07-31T06:31:41.358Z,97808.59
2022-07-31T06:34:12.434Z,97818.34
2022-07-31T06:36:40.886Z,97820.84
2022-07-31T06:39:09.471Z,97812.97
2022-07-31T06:41:48.261Z,97815.91
2022-07-31T06:44:19.352Z,97816.53
2022-07-31T06:46:49.052Z,97818.38
2022-07-31T06:49:18.327Z,97817.97
2022-07-31T06:51:46.917Z,97810.91
2022-07-31T06:54:15.395Z,97820.88
2022-07-31T06:56:43.887Z,97822.16
2022-07-31T06:59:12.997Z,97825.69
2022-07-31T07:01:43.214Z,97821.31
2022-07-31T07:04:11.713Z,97819.25
2022-07-31T07:06:40.359Z,97826.88
2022-07-31T07:09:08.845Z,97824.47
2022-07-31T07:11:37.350Z,97820.13
2022-07-31T07:14:05.771Z,97833.69
2022-07-31T07:16:34.414Z,97824.31
2022-07-31T07:19:04.235Z,97839.56
2022-07-31T07:21:33.340Z,97838.19
2022-07-31T07:24:01.927Z,97836.97
2022-07-31T07:26:30.439Z,97842.00
2022-07-31T07:28:59.605Z,97835.28
2022-07-31T07:31:28.592Z,97843.56
2022-07-31T07:33:57.097Z,97844.59
2022-07-31T07:36:27.018Z,97837.69
2022-07-31T07:38:56.475Z,97841.34
2022-07-31T07:41:25.265Z,97850.00
2022-07-31T07:43:54.087Z,97839.19
2022-07-31T07:46:23.383Z,97839.66
2022-07-31T07:48:52.193Z,97842.84
2022-07-31T07:51:20.931Z,97840.94
2022-07-31T07:53:50.839Z,97843.78
2022-07-31T07:56:19.364Z,97839.34
2022-07-31T07:58:49.233Z,97833.84
2022-07-31T08:01:18.283Z,97826.69
2022-07-31T08:03:51.746Z,97845.38
2022-07-31T08:06:21.920Z,97835.91
2022-07-31T08:08:51.781Z,97836.28
2022-07-31T08:11:20.973Z,97827.16
2022-07-31T08:13:50.901Z,97834.19
2022-07-31T08:16:20.952Z,97836.75
2022-07-31T08:18:49.564Z,97845.88
2022-07-31T08:21:18.131Z,97843.81
2022-07-31T08:23:47.455Z,97840.47
2022-07-31T08:26:18.760Z,97842.97
2022-07-31T08:28:49.806Z,97858.00
2022-07-31T08:31:20.240Z,97841.13
2022-07-31T08:33:50.157Z,97845.50
2022-07-31T08:36:18.854Z,97844.25
2022-07-31T08:38:47.356Z,97854.03
2022-07-31T08:41:17.348Z,97844.72
2022-07-31T08:44:02.370Z,97857.53
2022-07-31T08:46:34.069Z,97855.50
2022-07-31T08:49:03.796Z,97859.19
2022-07-31T08:51:34.230Z,97858.19
2022-07-31T08:54:20.218Z,97859.19
2022-07-31T08:56:52.567Z,97861.13
2022-07-31T08:59:22.158Z,97857.38
2022-07-31T09:01:51.427Z,97859.25
2022-07-31T09:04:20.018Z,97860.06
2022-07-31T09:06:48.543Z,97866.50
2022-07-31T09:09:17.949Z,97858.63
2022-07-31T09:11:53.936Z,97864.22
2022-07-31T09:14:30.605Z,97859.88
2022-07-31T09:16:59.279Z,97873.38
2022-07-31T09:19:52.081Z,97872.09
2022-07-31T09:22:24.520Z,97874.59
2022-07-31T09:24:53.255Z,97866.72
2022-07-31T09:27:29.271Z,97876.72
2022-07-31T09:29:59.052Z,97873.81
2022-07-31T09:32:27.534Z,97878.38
2022-07-31T09:34:56.110Z,97872.56
2022-07-31T09:37:27.438Z,97870.53
2022-07-31T09:39:57.245Z,97867.59
2022-07-31T09:42:38.388Z,97876.94
2022-07-31T09:45:21.828Z,97869.47
2022-07-31T09:48:04.145Z,97880.72
2022-07-31T09:50:32.878Z,97883.59
2022-07-31T09:53:01.816Z,97880.91
2022-07-31T09:55:30.434Z,97883.34
2022-07-31T09:58:01.154Z,97882.13
2022-07-31T10:00:29.911Z,97882.13
2022-07-31T10:02:58.604Z,97879.66
2022-07-31T10:05:28.527Z,97882.34
2022-07-31T10:08:00.358Z,97877.97
2022-07-31T10:10:30.219Z,97876.94
2022-07-31T10:13:02.836Z,97884.00
2022-07-31T10:15:31.267Z,97886.28
2022-07-31T10:17:59.780Z,97886.28
2022-07-31T10:20:28.497Z,97881.13
2022-07-31T10:23:00.267Z,97889.19
2022-07-31T10:25:29.935Z,97888.78
2022-07-31T10:27:59.775Z,97888.97
2022-07-31T10:30:28.947Z,97887.97
2022-07-31T10:32:58.785Z,97889.81
2022-07-31T10:35:27.447Z,97881.31
2022-07-31T10:38:02.343Z,97883.81
2022-07-31T10:40:36.542Z,97891.28
2022-07-31T10:43:20.505Z,97885.88
2022-07-31T10:45:50.485Z,97899.16
2022-07-31T10:48:19.337Z,97904.16
2022-07-31T10:50:48.100Z,97899.59
2022-07-31T10:53:18.016Z,97900.00
2022-07-31T10:55:46.925Z,97901.66
2022-07-31T10:58:19.695Z,97898.75
2022-07-31T11:00:48.415Z,97901.47
2022-07-31T11:03:17.188Z,97898.56
2022-07-31T11:06:04.195Z,97902.94
2022-07-31T11:08:43.234Z,97907.91
2022-07-31T11:11:12.511Z,97909.97
2022-07-31T11:13:49.815Z,97906.91
2022-07-31T11:16:18.438Z,97911.25
2022-07-31T11:18:57.988Z,97917.69
2022-07-31T11:21:38.661Z,97915.00
2022-07-31T11:24:15.102Z,97922.22
2022-07-31T11:26:50.532Z,97914.13
2022-07-31T11:29:59.451Z,97924.31
2022-07-31T11:32:25.309Z,97927.25
2022-07-31T11:34:56.165Z,97915.28
2022-07-31T11:37:25.812Z,97912.44
2022-07-31T11:39:55.110Z,97914.94
2022-07-31T11:42:27.787Z,97919.72
2022-07-31T11:45:08.433Z,97911.19
2022-07-31T11:48:12.395Z,97902.44
2022-07-31T11:50:31.090Z,97915.53
2022-07-31T11:53:07.075Z,97918.66
2022-07-31T11:55:46.347Z,97910.19
2022-07-31T11:58:16.718Z,97915.91
2022-07-31T12:00:54.163Z,97913.63
2022-07-31T12:03:24.287Z,97915.69
2022-07-31T12:05:53.578Z,97924.25
2022-07-31T12:08:22.523Z,97931.66
2022-07-31T12:10:52.543Z,97926.19
2022-07-31T12:13:21.840Z,97931.38
2022-07-31T12:16:00.013Z,97930.91
2022-07-31T12:18:29.587Z,97936.81
2022-07-31T12:21:00.660Z,97942.44
2022-07-31T12:23:41.306Z,97940.22
2022-07-31T12:26:12.944Z,97954.53
2022-07-31T12:28:41.684Z,97958.94
2022-07-31T12:31:11.521Z,97962.94
2022-07-31T12:33:43.670Z,97954.44
2022-07-31T12:36:16.402Z,97955.28
2022-07-31T12:38:48.407Z,97956.09
2022-07-31T12:41:18.039Z,97953.25
2022-07-31T12:43:51.427Z,97959.03
2022-07-31T12:46:24.154Z,97952.63
2022-07-31T12:48:52.649Z,97958.41
2022-07-31T12:51:44.046Z,97959.63
2022-07-31T12:54:10.197Z,97965.22
2022-07-31T12:56:39.216Z,97963.59
2022-07-31T12:59:08.328Z,97969.19
2022-07-31T13:01:38.417Z,97964.44
2022-07-31T13:04:18.674Z,97969.19
2022-07-31T13:06:51.527Z,97965.88
2022-07-31T13:09:20.567Z,97968.81
2022-07-31T13:11:51.229Z,97960.63
2022-07-31T13:14:23.652Z,97964.97
2022-07-31T13:16:55.075Z,97973.72
2022-07-31T13:19:23.632Z,97965.66
2022-07-31T13:21:52.162Z,97963.59
2022-07-31T13:24:25.341Z,97967.13
2022-07-31T13:26:53.834Z,97967.34
2022-07-31T13:29:22.340Z,97967.34
2022-07-31T13:31:52.275Z,97955.72
2022-07-31T13:34:20.836Z,97955.34
2022-07-31T13:36:49.383Z,97961.75
2022-07-31T13:39:18.045Z,97953.47
2022-07-31T13:41:46.585Z,97963.41
2022-07-31T13:44:15.239Z,97961.09
2022-07-31T13:46:43.730Z,97953.41
2022-07-31T13:49:14.102Z,97961.91
2022-07-31T13:51:42.664Z,97949.47
2022-07-31T13:54:11.629Z,97951.34
2022-07-31T13:56:43.667Z,97957.53
2022-07-31T13:59:13.759Z,97948.41
2022-07-31T14:02:05.211Z,97954.63
2022-07-31T14:04:38.636Z,97958.38
2022-07-31T14:07:09.167Z,97960.03
2022-07-31T14:09:37.994Z,97957.53
2022-07-31T14:12:07.783Z,97955.28
2022-07-31T14:14:38.264Z,97952.59
2022-07-31T14:17:06.799Z,97955.91
2022-07-31T14:19:40.625Z,97960.09
2022-07-31T14:22:14.408Z,97966.47
2022-07-31T14:24:49.384Z,97962.97
2022-07-31T14:27:19.928Z,97956.34
2022-07-31T14:29:48.743Z,97966.88
2022-07-31T14:32:17.313Z,97962.72
2022-07-31T14:34:47.258Z,97963.38
2022-07-31T14:37:15.821Z,97959.19
2022-07-31T14:39:44.298Z,97959.41
2022-07-31T14:42:12.950Z,97965.81
2022-07-31T14:44:42.817Z,97970.38
2022-07-31T14:47:11.413Z,97969.16
2022-07-31T14:50:07.222Z,97981.97
2022-07-31T14:52:30.002Z,97974.94
2022-07-31T14:54:59.603Z,97981.16
2022-07-31T14:57:28.242Z,97993.59
2022-07-31T14:59:59.008Z,97992.34
2022-07-31T15:02:28.067Z,97988.66
2022-07-31T15:04:56.563Z,97987.81
2022-07-31T15:07:46.271Z,97987.19
2022-07-31T15:10:15.223Z,97984.50
2022-07-31T15:12:43.821Z,97987.19
2022-07-31T15:15:12.833Z,97991.09
2022-07-31T15:17:41.358Z,97994.81
2022-07-31T15:20:11.237Z,97991.28
2022-07-31T15:22:39.767Z,98006.88
2022-07-31T15:25:10.249Z,98007.59
2022-07-31T15:27:40.218Z,98014.28
2022-07-31T15:30:10.340Z,98006.44
2022-07-31T15:32:39.957Z,98015.53
2022-07-31T15:35:10.201Z,98016.56
2022-07-31T15:37:39.299Z,98015.53
2022-07-31T15:40:10.355Z,97996.88
2022-07-31T15:42:41.762Z,98009.00
2022-07-31T15:45:12.300Z,98004.59
2022-07-31T15:47:40.831Z,98004.38
2022-07-31T15:50:11.094Z,98012.00
2022-07-31T15:52:39.537Z,98005.25
2022-07-31T15:55:09.831Z,97998.53
2022-07-31T15:57:39.789Z,98005.22
2022-07-31T16:00:10.808Z,98001.06
2022-07-31T16:02:39.554Z,98001.41
2022-07-31T16:05:15.206Z,98006.78
2022-07-31T16:08:28.799Z,98010.44
2022-07-31T16:10:39.568Z,98007.59
2022-07-31T16:13:09.705Z,98004.50
2022-07-31T16:15:38.696Z,98011.75
2022-07-31T16:18:07.310Z,98014.88
2022-07-31T16:20:38.272Z,98014.47
2022-07-31T16:23:06.693Z,98009.91
2022-07-31T16:25:35.667Z,98007.19
2022-07-31T16:28:04.204Z,98009.97
2022-07-31T16:30:34.365Z,98009.56
2022-07-31T16:33:03.261Z,98008.50
2022-07-31T16:35:31.695Z,98009.28
2022-07-31T16:38:00.120Z,97996.94
2022-07-31T16:40:31.884Z,97996.75
2022-07-31T16:43:47.734Z,97992.22
2022-07-31T16:45:54.286Z,97986.63
2022-07-31T16:48:22.759Z,97988.50
2022-07-31T16:50:54.067Z,97990.75
2022-07-31T16:54:11.526Z,97986.00
2022-07-31T16:56:12.489Z,97988.84
2022-07-31T16:58:41.040Z,97992.31
2022-07-31T17:01:58.573Z,97989.47
2022-07-31T17:04:03.693Z,97986.16
2022-07-31T17:06:35.171Z,97995.28
2022-07-31T17:09:16.129Z,97991.53
2022-07-31T17:11:47.395Z,97998.63
2022-07-31T17:14:16.210Z,97998.00
2022-07-31T17:16:48.024Z,98001.91
2022-07-31T17:19:36.049Z,98002.75
2022-07-31T17:22:07.417Z,98006.47
2022-07-31T17:24:37.810Z,98003.59
2022-07-31T17:27:07.897Z,98007.56
2022-07-31T17:29:36.995Z,98001.34
2022-07-31T17:32:07.220Z,98007.75
2022-07-31T17:34:36.363Z,98017.78
2022-07-31T17:37:05.489Z,98021.84
2022-07-31T17:39:34.510Z,98016.72
2022-07-31T17:42:02.968Z,98012.13
2022-07-31T17:44:31.428Z,98020.16
2022-07-31T17:47:03.730Z,98023.03
2022-07-31T17:49:35.351Z,98022.22
2022-07-31T17:52:03.867Z,98028.69
2022-07-31T17:54:32.759Z,98025.41
2022-07-31T17:57:01.547Z,98031.16
2022-07-31T17:59:30.064Z,98025.78
2022-07-31T18:02:00.770Z,98025.16
2022-07-31T18:04:29.657Z,98023.28
2022-07-31T18:06:59.861Z,98027.84
2022-07-31T18:09:28.792Z,98028.69
2022-07-31T18:11:57.471Z,98026.81
2022-07-31T18:14:25.998Z,98031.56
2022-07-31T18:16:54.497Z,98034.25
2022-07-31T18:19:23.113Z,98039.63
2022-07-31T18:21:51.929Z,98037.16
2022-07-31T18:24:21.831Z,98040.69
2022-07-31T18:26:50.527Z,98042.72
2022-07-31T18:29:18.986Z,98040.03
2022-07-31T18:31:47.808Z,98044.84
2022-07-31T18:34:16.336Z,98051.88
2022-07-31T18:36:44.951Z,98054.16
2022-07-31T18:39:13.399Z,98056.63
2022-07-31T18:41:48.295Z,98056.63
2022-07-31T18:44:17.601Z,98059.53
2022-07-31T18:46:46.063Z,98064.94
2022-07-31T18:51:02.048Z,98064.94
2022-07-31T18:52:03.294Z,98055.19
2022-07-31T18:54:32.185Z,98072.38
2022-07-31T18:57:03.546Z,98072.38
2022-07-31T18:59:32.136Z,98071.53
2022-07-31T19:02:00.760Z,98070.31
2022-07-31T19:04:29.666Z,98069.50
2022-07-31T19:06:58.155Z,98066.97
2022-07-31T19:09:26.655Z,98069.69
2022-07-31T19:11:58.474Z,98079.81
2022-07-31T19:14:28.734Z,98079.63
2022-07-31T19:16:59.908Z,98073.19
2022-07-31T19:19:31.748Z,98083.16
2022-07-31T19:22:17.081Z,98077.56
2022-07-31T19:24:45.517Z,98082.75
2022-07-31T19:27:13.978Z,98086.66
2022-07-31T19:32:12.752Z,98077.66
2022-07-31T19:34:42.098Z,98088.94
2022-07-31T19:37:16.614Z,98084.84
2022-07-31T19:39:45.131Z,98083.78
2022-07-31T19:42:13.639Z,98092.69
2022-07-31T19:44:43.683Z,98090.00
2022-07-31T19:47:12.127Z,98091.88
2022-07-31T19:49:43.126Z,98091.06
2022-07-31T19:52:11.661Z,98090.22
2022-07-31T19:54:40.394Z,98088.53
2022-07-31T19:57:09.134Z,98093.09
2022-07-31T19:59:37.646Z,98087.72
2022-07-31T20:02:08.611Z,98092.06
2022-07-31T20:04:37.866Z,98085.84
2022-07-31T20:07:07.285Z,98093.94
2022-07-31T20:09:38.205Z,98086.88
2022-07-31T20:12:08.141Z,98093.94
2022-07-31T20:14:36.950Z,98087.72
2022-07-31T20:17:05.431Z,98085.19
2022-07-31T20:19:35.495Z,98086.88
2022-07-31T20:22:24.756Z,98087.72
2022-07-31T20:24:53.345Z,98093.28
2022-07-31T20:27:21.887Z,98092.28
2022-07-31T20:29:50.401Z,98090.41
2022-07-31T20:32:18.937Z,98084.19
2022-07-31T20:34:51.637Z,98086.28
2022-07-31T20:37:20.144Z,98084.63
2022-07-31T20:39:48.572Z,98079.06
2022-07-31T20:42:17.022Z,98079.44
2022-07-31T20:44:45.456Z,98086.50
2022-07-31T20:47:14.625Z,98090.22
2022-07-31T20:49:43.159Z,98088.53
2022-07-31T20:52:13.044Z,98092.91
2022-07-31T20:54:41.542Z,98079.44
2022-07-31T20:57:10.073Z,98081.28
2022-07-31T20:59:38.545Z,98084.84
2022-07-31T21:02:07.328Z,98084.84
2022-07-31T21:04:35.914Z,98081.50
2022-07-31T21:07:04.387Z,98087.72
2022-07-31T21:09:34.265Z,98083.78
2022-07-31T21:12:03.271Z,98086.50
2022-07-31T21:14:32.088Z,98083.78
2022-07-31T21:17:00.802Z,98073.00
2022-07-31T21:19:29.396Z,98088.16
2022-07-31T21:21:57.823Z,98083.59
2022-07-31T21:24:26.975Z,98081.75
2022-07-31T21:26:57.924Z,98085.25
2022-07-31T21:29:27.163Z,98079.06
2022-07-31T21:31:57.550Z,98072.81
2022-07-31T21:34:26.694Z,98085.25
2022-07-31T21:36:55.504Z,98082.75
2022-07-31T21:39:26.003Z,98078.19
2022-07-31T21:41:56.785Z,98089.84
2022-07-31T21:44:25.893Z,98073.66
2022-07-31T21:46:55.746Z,98082.56
2022-07-31T21:49:25.889Z,98090.84
2022-07-31T21:51:55.203Z,98081.75
2022-07-31T21:54:23.672Z,98088.78
2022-07-31T21:56:52.112Z,98092.69
2022-07-31T21:59:21.949Z,98082.75
2022-07-31T22:01:58.131Z,98090.84
2022-07-31T22:04:29.866Z,98088.97
2022-07-31T22:07:20.711Z,98095.22
2022-07-31T22:09:49.157Z,98095.84
2022-07-31T22:12:17.575Z,98091.47
2022-07-31T22:14:47.915Z,98095.22
2022-07-31T22:17:16.398Z,98094.38
2022-07-31T22:19:47.113Z,98097.91
2022-07-31T22:22:17.168Z,98104.31
2022-07-31T22:24:46.288Z,98107.84
2022-07-31T22:27:33.145Z,98101.44
2022-07-31T22:30:03.193Z,98106.00
2022-07-31T22:32:32.120Z,98107.84
2022-07-31T22:35:00.707Z,98108.88
2022-07-31T22:37:32.789Z,98110.53
2022-07-31T22:40:01.889Z,98104.31
2022-07-31T22:42:30.561Z,98104.31
2022-07-31T22:44:59.320Z,98107.84
2022-07-31T22:47:30.252Z,98108.69
2022-07-31T22:49:59.257Z,98111.38
2022-07-31T22:52:34.639Z,98104.97
2022-07-31T22:55:06.269Z,98102.25
2022-07-31T22:57:34.714Z,98102.91
2022-07-31T23:00:03.477Z,98096.03
2022-07-31T23:02:33.289Z,98100.22
2022-07-31T23:05:02.024Z,98097.53
2022-07-31T23:07:30.551Z,98092.13
2022-07-31T23:09:59.002Z,98094.81
2022-07-31T23:12:28.233Z,98105.59
2022-07-31T23:14:58.282Z,98103.91
2022-07-31T23:17:26.774Z,98108.47
2022-07-31T23:19:56.651Z,98111.00
2022-07-31T23:22:33.493Z,98109.31
2022-07-31T23:25:03.092Z,98112.88
2022-07-31T23:27:31.662Z,98102.09
2022-07-31T23:30:00.282Z,98112.00
2022-07-31T23:32:28.898Z,98109.53
2022-07-31T23:34:58.716Z,98106.81
2022-07-31T23:37:27.167Z,98103.47
2022-07-31T23:39:55.583Z,98108.69
2022-07-31T23:42:38.105Z,98108.69
2022-07-31T23:45:08.579Z,98107.00
2022-07-31T23:47:45.570Z,98115.09
2022-07-31T23:50:16.240Z,98120.47
2022-07-31T23:52:44.665Z,98110.53
2022-07-31T23:55:13.218Z,98111.56
2022-07-31T23:57:41.802Z,98113.44
